LiveATC.Net - Listen to live air traffic control over the Internet!


ICAO: KW10  IATA: W10   Airport: Whidbey Air Park
City: Langley   State/Province: Washington
Country: United States   Continent: North America
KPAE METAR Weather: KPAE 010653Z AUTO 15005KT 8SM SCT100 01/M01 A2954 RMK AO2 SLP008 T00061011
KW10 ADS-B Flight Tracking (ADSBExchange)
KW10 Flight Activity (FlightAware)
KW10 Airport Info   (iFlightPlanner)
KW10 VFR Sectional Chart   (iFlightPlanner) 
KW10 IFR Low Altitude Chart   (iFlightPlanner) 
KW10 IFR High Altitude Chart   (iFlightPlanner) 

W10 CTAF
Feed Status: DOWN
Last heard on: 2022-11-30 23:52:22 (0 days 7 hours 38 minutes ago)
Archive Access: W10 CTAF
FacilityFrequency
Whidbey CTAF122.900

NOTICE

Unauthorized use prohibited. See LiveATC.net Terms of Service


Airport/ARTCC Code
Frequency Search
(e.g., 124.400, 128.75)
Site-wide search
 


Browse Feeds
Top 50 Feeds
HF Oceanic Feeds
Coverage Map
Bad Weather Areas

LiveATC FAQ
Offer LiveATC feed
Contact LiveATC.net
Press Inquiries

LiveATC on iPhone
LiveATC on Android

LiveATC Mobile
(Mobile browser)

ATC Audio Archives
Interesting Recordings

LiveATC Forums


Home Page
About LiveATC.net


Terms of Use
Privacy Policy

AIRMETs/SIGMETs

FAA Airport Status
NAS Status
Arrival Demand


Server Software By:
Icecast.org
Liquidsoap